Oriska, North Dakota
Current Conditions -  °F | °C
As of 1:15 PM on Friday 24 Oct 2014 (Local Time) from KBAC Reporting Station
Clear Clear  
Wind Chill: 70°   Ceiling: Unl
Heat Index: 70°   Visibility: 10mi
Dew Point: 43°   Wind: 15mph
Humidity: 38%   Direction: 270°W
Pressure: 29.83"   Gusts: 18mph
Location:  46.93°N, 97.79°W
Report Text: KBAC 241815Z AUTO 27013G16KT 10SM CLR 21/06 A2983 RMK AO2
Loading
Personal Weather Stations






























Interactive Weather Map
Tropical Storm Tracking
New forecast layout! Learn more

10-Day Weather Forecast

Advertisements
Track Severe Weather on mobile